KOCH/OCH METAR and TAF weather

Enter ICAO airport designator
Station Type Date Time Source
KOCH METAR 2019/08/20 08:56 UTC NOAA

KOCH 200856Z AUTO 19003KT 10SM CLR 24/24 A3001 RMK AO2 SLP161 T02440239 55002


Station Type Date Time Source
KOCH Decoded METAR 2019/08/20 08:56 UTC NOAA

Nacogdoches, A L Mangham Jr. Regional Airport, TX, United States (KOCH) 31-35N 094-43W
Aug 20, 2019 - 04:56 AM EDT / 2019.08.20 0856 UTC
Wind: from the S (190 degrees) at 3 MPH (3 KT):0
Visibility: 10 mile(s):0
Sky conditions: clear
Temperature: 75.9 F (24.4 C)
Dew Point: 75.0 F (23.9 C)
Relative Humidity: 97%
Pressure (altimeter): 30.01 in. Hg (1016 hPa)
Pressure tendency: 0.01 inches (0.2 hPa) lower than three hours ago
ob: KOCH 200856Z AUTO 19003KT 10SM CLR 24/24 A3001 RMK AO2 SLP161 T02440239 55002
cycle: 9

Station Type Date Time Source
KOCH TAF UTC NOAA

Error!

Example: see airport list